createdAt,value
2022-11-07T00:01:19.544Z,100577.25
2022-11-07T00:04:22.369Z,100576.53
2022-11-07T00:07:25.025Z,100572.41
2022-11-07T00:10:27.967Z,100577.97
2022-11-07T00:13:31.336Z,100584.16
2022-11-07T00:16:34.213Z,100575.00
2022-11-07T00:19:36.828Z,100579.03
2022-11-07T00:22:39.719Z,100585.87
2022-11-07T00:25:42.663Z,100594.16
2022-11-07T00:28:46.283Z,100586.94
2022-11-07T00:31:49.587Z,100599.19
2022-11-07T00:34:52.579Z,100592.59
2022-11-07T00:37:55.951Z,100590.44
2022-11-07T00:41:04.281Z,100586.06
2022-11-07T00:44:07.181Z,100582.03
2022-11-07T00:47:10.013Z,100590.94
2022-11-07T00:50:12.671Z,100588.72
2022-11-07T00:53:16.015Z,100583.97
2022-11-07T00:56:22.310Z,100579.09
2022-11-07T00:59:25.251Z,100579.97
2022-11-07T01:02:27.915Z,100582.16
2022-11-07T01:05:30.892Z,100579.31
2022-11-07T01:08:33.550Z,100581.88
2022-11-07T01:11:38.826Z,100586.41
2022-11-07T01:14:41.746Z,100579.44
2022-11-07T01:17:44.955Z,100580.09
2022-11-07T01:20:48.022Z,100579.34
2022-11-07T01:23:50.976Z,100576.69
2022-11-07T01:26:53.638Z,100584.28
2022-11-07T01:29:56.700Z,100586.94
2022-11-07T01:32:59.427Z,100581.97
2022-11-07T01:36:06.164Z,100576.97
2022-11-07T01:39:12.103Z,100564.31
2022-11-07T01:42:15.017Z,100568.53
2022-11-07T01:45:24.628Z,100568.41
2022-11-07T01:48:28.912Z,100569.53
2022-11-07T01:51:37.121Z,100547.88
2022-11-07T01:55:21.401Z,100545.63
2022-11-07T01:58:24.080Z,100555.56
2022-11-07T02:01:27.377Z,100546.75
2022-11-07T02:04:31.604Z,100549.41
2022-11-07T02:07:34.363Z,100545.84
2022-11-07T02:10:39.692Z,100546.34
2022-11-07T02:13:42.617Z,100547.16
2022-11-07T02:16:46.575Z,100541.56
2022-11-07T02:19:52.032Z,100528.69
2022-11-07T02:23:01.364Z,100527.44
2022-11-07T02:26:04.043Z,100521.63
2022-11-07T02:29:10.364Z,100516.75
2022-11-07T02:32:13.291Z,100517.88
2022-11-07T02:35:42.742Z,100523.44
2022-11-07T02:38:48.974Z,100531.84
2022-11-07T02:41:53.472Z,100524.03
2022-11-07T02:44:56.096Z,100528.94
2022-11-07T02:47:59.084Z,100534.69
2022-11-07T02:51:01.668Z,100528.25
2022-11-07T02:54:04.910Z,100531.41
2022-11-07T02:57:07.456Z,100533.94
2022-11-07T03:00:13.220Z,100528.19
2022-11-07T03:03:16.185Z,100533.31
2022-11-07T03:06:28.333Z,100533.66
2022-11-07T03:09:30.932Z,100540.25
2022-11-07T03:12:33.779Z,100536.34
2022-11-07T03:15:36.426Z,100538.37
2022-11-07T03:18:39.619Z,100542.75
2022-11-07T03:21:42.192Z,100541.16
2022-11-07T03:24:45.277Z,100554.22
2022-11-07T03:27:49.012Z,100554.22
2022-11-07T03:30:52.471Z,100554.66
2022-11-07T03:33:54.996Z,100554.66
2022-11-07T03:36:57.855Z,100560.19
2022-11-07T03:40:00.429Z,100556.63
2022-11-07T03:43:03.562Z,100575.50
2022-11-07T03:46:06.247Z,100573.41
2022-11-07T03:49:09.356Z,100577.03
2022-11-07T03:52:12.903Z,100564.22
2022-11-07T03:55:18.447Z,100565.47
2022-11-07T03:58:21.238Z,100582.72
2022-11-07T04:01:24.267Z,100581.91
2022-11-07T04:04:28.656Z,100579.87
2022-11-07T04:07:31.438Z,100569.97
2022-11-07T04:10:34.247Z,100569.78
2022-11-07T04:13:55.536Z,100569.28
2022-11-07T04:17:17.333Z,100579.09
2022-11-07T04:20:19.967Z,100587.31
2022-11-07T04:23:22.891Z,100576.88
2022-11-07T04:26:43.911Z,100586.00
2022-11-07T04:29:46.757Z,100597.06
2022-11-07T04:32:57.107Z,100604.91
2022-11-07T04:35:59.980Z,100614.38
2022-11-07T04:39:02.508Z,100612.63
2022-11-07T04:42:07.172Z,100608.03
2022-11-07T04:45:10.845Z,100611.25
2022-11-07T04:48:14.998Z,100614.75
2022-11-07T04:51:21.506Z,100620.00
2022-11-07T04:54:25.481Z,100618.75
2022-11-07T04:57:29.215Z,100622.06
2022-11-07T05:00:32.124Z,100617.25
2022-11-07T05:03:40.371Z,100620.97
2022-11-07T05:06:44.603Z,100621.22
2022-11-07T05:09:47.330Z,100621.06
2022-11-07T05:12:50.891Z,100625.00
2022-11-07T05:15:53.654Z,100642.25
2022-11-07T05:18:57.772Z,100648.66
2022-11-07T05:22:19.130Z,100652.50
2022-11-07T05:25:22.044Z,100648.47
2022-11-07T05:28:38.234Z,100657.03
2022-11-07T05:31:41.554Z,100649.81
2022-11-07T05:34:45.304Z,100658.72
2022-11-07T05:37:51.615Z,100653.44
2022-11-07T05:40:54.225Z,100667.25
2022-11-07T05:43:57.471Z,100672.03
2022-11-07T05:47:00.756Z,100677.66
2022-11-07T05:50:03.724Z,100681.25
2022-11-07T05:53:06.990Z,100683.72
2022-11-07T05:56:09.908Z,100677.28
2022-11-07T05:59:13.145Z,100689.19
2022-11-07T06:02:16.344Z,100707.28
2022-11-07T06:05:23.131Z,100706.16
2022-11-07T06:08:27.145Z,100705.94
2022-11-07T06:11:32.814Z,100713.44
2022-11-07T06:14:35.440Z,100708.03
2022-11-07T06:17:38.918Z,100724.00
2022-11-07T06:20:41.655Z,100732.19
2022-11-07T06:23:44.819Z,100726.91
2022-11-07T06:26:47.342Z,100735.69
2022-11-07T06:29:50.231Z,100739.81
2022-11-07T06:32:52.836Z,100738.22
2022-11-07T06:35:55.927Z,100745.00
2022-11-07T06:38:58.472Z,100748.31
2022-11-07T06:42:03.434Z,100749.47
2022-11-07T06:45:06.635Z,100751.28
2022-11-07T06:48:10.200Z,100752.41
2022-11-07T06:51:12.911Z,100747.50
2022-11-07T06:54:15.863Z,100751.69
2022-11-07T06:57:20.752Z,100763.53
2022-11-07T07:00:23.530Z,100760.91
2022-11-07T07:03:26.365Z,100764.09
2022-11-07T07:06:29.280Z,100765.87
2022-11-07T07:09:31.976Z,100777.62
2022-11-07T07:12:35.046Z,100780.97
2022-11-07T07:15:50.452Z,100776.03
2022-11-07T07:18:54.192Z,100775.44
2022-11-07T07:21:56.807Z,100781.88
2022-11-07T07:24:59.950Z,100786.78
2022-11-07T07:28:03.091Z,100788.41
2022-11-07T07:31:19.067Z,100780.47
2022-11-07T07:34:21.605Z,100774.69
2022-11-07T07:37:24.556Z,100784.53
2022-11-07T07:40:28.641Z,100779.78
2022-11-07T07:43:31.987Z,100785.03
2022-11-07T07:46:34.531Z,100782.47
2022-11-07T07:49:37.566Z,100782.28
2022-11-07T07:52:40.161Z,100791.50
2022-11-07T07:55:44.032Z,100793.34
2022-11-07T07:58:46.834Z,100791.03
2022-11-07T08:01:55.163Z,100790.09
2022-11-07T08:05:01.472Z,100788.84
2022-11-07T08:08:05.406Z,100799.06
2022-11-07T08:11:10.310Z,100805.06
2022-11-07T08:14:13.220Z,100801.47
2022-11-07T08:17:16.141Z,100806.47
2022-11-07T08:20:28.076Z,100810.34
2022-11-07T08:23:31.473Z,100799.31
2022-11-07T08:26:34.458Z,100805.50
2022-11-07T08:29:37.409Z,100801.94
2022-11-07T08:32:39.999Z,100795.56
2022-11-07T08:35:43.016Z,100798.88
2022-11-07T08:38:45.777Z,100799.75
2022-11-07T08:41:48.664Z,100810.84
2022-11-07T08:44:51.300Z,100799.59
2022-11-07T08:47:58.915Z,100798.97
2022-11-07T08:51:04.663Z,100799.03
2022-11-07T08:54:07.560Z,100805.03
2022-11-07T08:57:10.770Z,100812.22
2022-11-07T09:00:14.194Z,100807.88
2022-11-07T09:03:44.420Z,100809.44
2022-11-07T09:06:39.647Z,100825.03
2022-11-07T09:09:42.247Z,100816.78
2022-11-07T09:12:49.930Z,100823.41
2022-11-07T09:15:57.366Z,100824.50
2022-11-07T09:19:00.230Z,100836.94
2022-11-07T09:22:02.973Z,100832.66
2022-11-07T09:25:06.463Z,100833.34
2022-11-07T09:28:09.248Z,100829.31
2022-11-07T09:31:12.427Z,100836.59
2022-11-07T09:34:15.068Z,100836.22
2022-11-07T09:37:18.316Z,100830.94
2022-11-07T09:40:28.878Z,100835.41
2022-11-07T09:43:53.191Z,100830.75
2022-11-07T09:47:06.773Z,100826.81
2022-11-07T09:50:31.986Z,100829.25
2022-11-07T09:53:42.881Z,100831.81
2022-11-07T09:56:46.997Z,100822.41
2022-11-07T09:59:55.403Z,100825.94
2022-11-07T10:03:00.914Z,100832.66
2022-11-07T10:06:25.107Z,100819.41
2022-11-07T10:09:39.748Z,100816.63
2022-11-07T10:13:28.401Z,100817.53
2022-11-07T10:16:49.848Z,100812.94
2022-11-07T10:20:07.573Z,100815.34
2022-11-07T10:23:29.421Z,100799.75
2022-11-07T10:26:32.721Z,100805.75
2022-11-07T10:29:48.128Z,100806.03
2022-11-07T10:33:05.480Z,100806.13
2022-11-07T10:36:25.674Z,100804.75
2022-11-07T10:39:32.114Z,100802.59
2022-11-07T10:42:34.794Z,100802.59
2022-11-07T10:45:39.757Z,100804.62
2022-11-07T10:48:57.175Z,100801.44
2022-11-07T10:52:17.012Z,100801.72
2022-11-07T10:55:20.021Z,100796.53
2022-11-07T10:58:31.237Z,100799.72
2022-11-07T11:01:34.034Z,100804.69
2022-11-07T11:04:38.568Z,100801.03
2022-11-07T11:07:41.581Z,100792.00
2022-11-07T11:10:44.805Z,100780.16
2022-11-07T11:13:48.560Z,100783.63
2022-11-07T11:16:56.653Z,100786.84
2022-11-07T11:19:59.577Z,100784.03
2022-11-07T11:23:06.357Z,100781.22
2022-11-07T11:26:36.339Z,100773.94
2022-11-07T11:29:58.172Z,100776.28
2022-11-07T11:33:20.386Z,100773.06
2022-11-07T11:36:28.735Z,100759.91
2022-11-07T11:40:00.492Z,100760.25
2022-11-07T11:43:23.078Z,100750.66
2022-11-07T11:46:32.288Z,100752.34
2022-11-07T11:49:59.482Z,100737.72
2022-11-07T11:53:02.164Z,100742.66
2022-11-07T11:56:08.055Z,100742.47
2022-11-07T12:00:01.102Z,100740.78
2022-11-07T12:03:34.372Z,100749.88
2022-11-07T12:06:42.494Z,100748.97
2022-11-07T12:09:47.399Z,100737.81
2022-11-07T12:12:53.410Z,100738.50
2022-11-07T12:16:11.505Z,100732.88
2022-11-07T12:19:23.062Z,100731.13
2022-11-07T12:22:26.841Z,100733.13
2022-11-07T12:25:37.726Z,100725.88
2022-11-07T12:28:44.497Z,100731.87
2022-11-07T12:32:19.402Z,100735.00
2022-11-07T12:35:28.293Z,100729.47
2022-11-07T12:38:37.811Z,100720.22
2022-11-07T12:41:52.375Z,100722.59
2022-11-07T12:45:07.058Z,100719.34
2022-11-07T12:48:28.075Z,100723.31
2022-11-07T12:51:47.206Z,100715.31
2022-11-07T12:55:02.480Z,100700.28
2022-11-07T12:58:15.056Z,100704.75
2022-11-07T13:01:26.668Z,100700.34
2022-11-07T13:05:12.651Z,100693.97
2022-11-07T13:08:35.082Z,100704.03
2022-11-07T13:11:38.149Z,100691.41
2022-11-07T13:14:42.632Z,100689.75
2022-11-07T13:17:47.299Z,100692.56
2022-11-07T13:21:00.134Z,100702.50
2022-11-07T13:24:06.695Z,100699.59
2022-11-07T13:27:32.379Z,100697.72
2022-11-07T13:30:40.378Z,100701.44
2022-11-07T13:33:42.984Z,100699.91
2022-11-07T13:36:49.518Z,100707.41
2022-11-07T13:39:58.689Z,100701.75
2022-11-07T13:43:10.354Z,100709.06
2022-11-07T13:46:31.672Z,100709.19
2022-11-07T13:49:45.055Z,100716.09
2022-11-07T13:53:07.220Z,100709.69
2022-11-07T13:56:29.098Z,100715.69
2022-11-07T13:59:44.837Z,100712.97
2022-11-07T14:02:52.961Z,100706.31
2022-11-07T14:05:56.716Z,100715.19
2022-11-07T14:08:59.324Z,100703.97
2022-11-07T14:12:03.769Z,100712.03
2022-11-07T14:15:13.807Z,100709.13
2022-11-07T14:18:18.980Z,100714.69
2022-11-07T14:21:35.276Z,100706.88
2022-11-07T14:24:38.330Z,100711.41
2022-11-07T14:27:46.401Z,100713.56
2022-11-07T14:30:51.688Z,100714.53
2022-11-07T14:33:57.243Z,100716.50
2022-11-07T14:37:05.823Z,100719.81
2022-11-07T14:40:10.619Z,100725.66
2022-11-07T14:43:20.867Z,100720.88
2022-11-07T14:46:25.416Z,100708.44
2022-11-07T14:49:33.276Z,100727.47
2022-11-07T14:53:00.040Z,100720.16
2022-11-07T14:56:08.722Z,100713.06
2022-11-07T14:59:14.946Z,100722.56
2022-11-07T15:02:27.439Z,100710.12
2022-11-07T15:05:35.911Z,100714.72
2022-11-07T15:08:39.238Z,100713.31
2022-11-07T15:12:01.620Z,100712.75
2022-11-07T15:15:13.113Z,100714.47
2022-11-07T15:18:26.663Z,100721.81
2022-11-07T15:21:35.716Z,100724.34
2022-11-07T15:24:46.387Z,100721.94
2022-11-07T15:27:49.325Z,100724.41
2022-11-07T15:30:54.944Z,100732.53
2022-11-07T15:34:00.791Z,100727.03
2022-11-07T15:37:15.377Z,100727.38
2022-11-07T15:40:20.636Z,100730.81
2022-11-07T15:43:23.850Z,100726.72
2022-11-07T15:46:35.661Z,100729.56
2022-11-07T15:49:38.233Z,100718.75
2022-11-07T15:52:41.201Z,100731.72
2022-11-07T15:55:45.055Z,100736.75
2022-11-07T15:58:48.360Z,100731.31
2022-11-07T16:01:51.114Z,100728.81
2022-11-07T16:04:54.378Z,100736.16
2022-11-07T16:07:58.455Z,100730.78
2022-11-07T16:11:02.514Z,100725.81
2022-11-07T16:14:34.483Z,100735.25
2022-11-07T16:17:29.848Z,100744.03
2022-11-07T16:20:33.779Z,100738.28
2022-11-07T16:23:37.794Z,100734.56
2022-11-07T16:26:40.507Z,100735.81
2022-11-07T16:29:44.500Z,100748.84
2022-11-07T16:32:47.619Z,100754.66
2022-11-07T16:35:53.429Z,100764.22
2022-11-07T16:38:56.383Z,100752.19
2022-11-07T16:41:59.240Z,100757.97
2022-11-07T16:45:02.570Z,100756.06
2022-11-07T16:48:06.067Z,100764.69
2022-11-07T16:51:15.022Z,100771.97
2022-11-07T16:54:18.598Z,100765.63
2022-11-07T16:57:25.101Z,100769.25
2022-11-07T17:00:29.124Z,100774.06
2022-11-07T17:03:33.606Z,100778.91
2022-11-07T17:06:37.439Z,100778.31
2022-11-07T17:09:40.573Z,100784.22
2022-11-07T17:12:44.184Z,100781.12
2022-11-07T17:15:48.097Z,100780.81
2022-11-07T17:18:52.057Z,100798.09
2022-11-07T17:21:55.590Z,100791.19
2022-11-07T17:24:59.096Z,100797.53
2022-11-07T17:28:04.153Z,100796.25
2022-11-07T17:31:07.962Z,100797.88
2022-11-07T17:34:11.077Z,100796.00
2022-11-07T17:37:18.449Z,100797.06
2022-11-07T17:40:29.794Z,100794.75
2022-11-07T17:43:33.091Z,100803.97
2022-11-07T17:46:37.249Z,100795.78
2022-11-07T17:49:40.388Z,100798.81
2022-11-07T17:52:43.369Z,100796.31
2022-11-07T17:55:46.662Z,100800.13
2022-11-07T17:58:54.050Z,100799.00
2022-11-07T18:01:57.485Z,100794.78
2022-11-07T18:05:00.825Z,100798.53
2022-11-07T18:08:04.120Z,100798.31
2022-11-07T18:11:07.350Z,100795.00
2022-11-07T18:14:12.317Z,100800.31
2022-11-07T18:17:15.703Z,100785.34
2022-11-07T18:20:18.340Z,100791.03
2022-11-07T18:23:21.341Z,100789.78
2022-11-07T18:26:31.238Z,100793.81
2022-11-07T18:29:36.273Z,100798.97
2022-11-07T18:32:39.795Z,100792.75
2022-11-07T18:35:44.455Z,100785.13
2022-11-07T18:38:48.065Z,100790.31
2022-11-07T18:41:52.446Z,100790.56
2022-11-07T18:44:55.491Z,100792.00
2022-11-07T18:47:59.381Z,100790.94
2022-11-07T18:51:03.456Z,100799.81
2022-11-07T18:54:07.484Z,100796.13
2022-11-07T18:57:10.448Z,100790.47
2022-11-07T19:00:15.557Z,100795.69
2022-11-07T19:03:19.609Z,100793.09
2022-11-07T19:06:25.533Z,100795.00
2022-11-07T19:09:32.212Z,100800.19
2022-11-07T19:12:36.276Z,100798.78
2022-11-07T19:15:40.109Z,100804.38
2022-11-07T19:18:49.192Z,100798.72
2022-11-07T19:21:52.962Z,100804.38
2022-11-07T19:24:56.737Z,100797.97
2022-11-07T19:28:00.239Z,100802.72
2022-11-07T19:31:08.644Z,100796.50
2022-11-07T19:34:11.320Z,100809.66
2022-11-07T19:37:14.516Z,100813.75
2022-11-07T19:40:17.715Z,100812.28
2022-11-07T19:43:21.243Z,100815.84
2022-11-07T19:46:25.667Z,100815.22
2022-11-07T19:49:29.183Z,100823.03
2022-11-07T19:52:34.102Z,100829.72
2022-11-07T19:55:38.364Z,100833.75
2022-11-07T19:58:43.208Z,100827.50
2022-11-07T20:02:04.142Z,100829.13
2022-11-07T20:05:09.995Z,100825.59
2022-11-07T20:08:13.158Z,100825.84
2022-11-07T20:11:23.473Z,100828.62
2022-11-07T20:14:27.645Z,100821.91
2022-11-07T20:17:31.290Z,100812.31
2022-11-07T20:20:34.027Z,100816.44
2022-11-07T20:23:37.303Z,100820.25
2022-11-07T20:26:40.925Z,100817.31
2022-11-07T20:29:44.389Z,100818.78
2022-11-07T20:32:47.823Z,100831.31
2022-11-07T20:36:03.121Z,100831.59
2022-11-07T20:39:15.860Z,100836.44
2022-11-07T20:42:19.427Z,100837.16
2022-11-07T20:45:22.525Z,100845.66
2022-11-07T20:48:26.007Z,100840.09
2022-11-07T20:51:30.763Z,100833.34
2022-11-07T20:54:36.303Z,100832.03
2022-11-07T20:57:41.427Z,100836.47
2022-11-07T21:00:47.437Z,100845.19
2022-11-07T21:03:53.243Z,100842.31
2022-11-07T21:06:56.816Z,100846.87
2022-11-07T21:10:00.647Z,100849.78
2022-11-07T21:13:05.652Z,100841.94
2022-11-07T21:16:09.335Z,100832.88
2022-11-07T21:19:16.717Z,100839.00
2022-11-07T21:22:19.439Z,100824.84
2022-11-07T21:25:24.044Z,100824.47
2022-11-07T21:28:27.085Z,100831.09
2022-11-07T21:31:31.511Z,100828.88
2022-11-07T21:34:37.485Z,100823.91
2022-11-07T21:37:40.679Z,100822.09
2022-11-07T21:40:43.330Z,100821.75
2022-11-07T21:43:46.790Z,100820.25
2022-11-07T21:46:49.368Z,100822.09
2022-11-07T21:49:52.275Z,100818.84
2022-11-07T21:52:56.668Z,100824.56
2022-11-07T21:56:00.540Z,100821.16
2022-11-07T21:59:06.690Z,100827.44
2022-11-07T22:02:12.779Z,100826.16
2022-11-07T22:05:15.761Z,100828.34
2022-11-07T22:08:23.427Z,100826.59
2022-11-07T22:11:26.792Z,100826.78
2022-11-07T22:14:29.460Z,100830.03
2022-11-07T22:17:32.279Z,100812.38
2022-11-07T22:20:34.886Z,100825.97
2022-11-07T22:23:38.939Z,100825.16
2022-11-07T22:26:41.679Z,100828.75
2022-11-07T22:29:47.087Z,100830.63
2022-11-07T22:32:51.799Z,100824.34
2022-11-07T22:35:54.682Z,100830.69
2022-11-07T22:38:58.398Z,100834.28
2022-11-07T22:42:01.224Z,100828.53
2022-11-07T22:45:04.045Z,100829.19
2022-11-07T22:48:07.268Z,100820.94
2022-11-07T22:51:35.003Z,100822.88
2022-11-07T22:54:38.185Z,100810.25
2022-11-07T22:57:41.067Z,100812.50
2022-11-07T23:00:43.965Z,100822.06
2022-11-07T23:03:47.496Z,100818.81
2022-11-07T23:06:50.421Z,100819.00
2022-11-07T23:09:57.974Z,100821.56
2022-11-07T23:13:04.856Z,100817.22
2022-11-07T23:16:18.114Z,100817.66
2022-11-07T23:19:23.779Z,100815.09
2022-11-07T23:22:32.070Z,100823.37
2022-11-07T23:25:37.186Z,100816.91
2022-11-07T23:28:40.791Z,100812.38
2022-11-07T23:31:47.024Z,100817.41
2022-11-07T23:34:50.508Z,100816.75
2022-11-07T23:37:54.666Z,100817.25
2022-11-07T23:41:01.598Z,100820.94
2022-11-07T23:44:06.524Z,100818.53
2022-11-07T23:47:30.483Z,100816.06
2022-11-07T23:50:52.742Z,100811.69
2022-11-07T23:54:14.733Z,100822.22
2022-11-07T23:57:19.984Z,100804.59
